Terminal Aerodrome Forecast
Issued by NWS Chicago, IL

Home | Current Version | Previous Version | Graphics & Text | Print | Product List | Glossary On
Versions: 1 2 3 4 5 6 7 8 9 10 11 12 13 14 15 16 17 18 19 20 21 22 23 24 25 26 27 28 29 30 31 32 33 34 35 36 37
000
FTUS43 KLOT 302300
TAFRFD
TAF
KRFD 302336Z 3100/3124 24006KT P6SM FEW150
     FM311400 21010KT P6SM FEW150 BKN250
     FM311600 25009KT P6SM BKN040 BKN150
     FM312200 24005KT P6SM OVC025=

USA.gov is the U.S. government's official web portal to all federal, state and local government web resources and services.